Alt de Hatillo, Puerto Rico
Current Conditions -  °F | °C
As of 10:50 AM on Friday 24 Oct 2014 (Local Time) from TJBQ Reporting Station
Scattered Clouds Scattered Clouds  
Wind Chill: 30°   Ceiling: Unl
Heat Index: 35°   Visibility: 10mi
Dew Point: 24°   Wind: 9mph
Humidity: 70%   Direction: 90°E
Pressure: 29.96"   Gusts: NA
Location:  18.4851°N, 66.8257°W
Report Text: TJBQ 241450Z 09008KT 10SM SCT030 30/24 A2996 RMK RWY08 - ATIS U
Loading
Personal Weather Stations






























Interactive Weather Map
Tropical Storm Tracking
New forecast layout! Learn more

10-Day Weather Forecast

Advertisements
Track Severe Weather on mobile